Impacts TAF Board INFO
FOR SITUATIONAL AWARENESS. NOT TO BE USED FOR FLIGHT PLANNING PURPOSES.
IDs:

KBOS - Boston/Logan Intl, MA, US

Issued at 2327 UTC 11 Dec 2017
Updated at 0447 UTC 12 Dec 2017
Potential Impact None Slight Moderate High
Time<<13/05Z 13/06Z 13/07Z 13/08Z 13/09Z 13/10Z 13/11Z 13/12Z 13/13Z 13/14Z 13/15Z 13/16Z 13/17Z
Type PRVL
VIS >6
CIG 35
Cover BKN
FltCat VFR
WX --
WDir 240
WSpd 8
WGst --

Raw TAF
KBOS 112327Z 1200/1306 28005KT P6SM SCT050
  FM120700 10003KT P6SM OVC050
  FM120900 11004KT P6SM OVC030
  FM121400 13013G24KT 6SM -RA OVC015
  FM122100 16011G21KT 4SM BR OVC008
  FM130300 24008KT P6SM BKN035


METAR Board
Radar Display
Forecast Discussion

FOR SITUATIONAL AWARENESS. NOT TO BE USED FOR FLIGHT PLANNING PURPOSES.